Impacts METAR Board
IDs:

KDFW - Dallas-Ft Worth Intl, TX, US

Updated at: 0300 UTC 12 Dec 2018
Potential Impact None Slight Moderate High
Time 11/15Z 11/16Z 11/17Z 11/18Z 11/19Z 11/20Z 11/21Z 11/22Z 11/23Z 12/00Z 12/01Z 12/02Z 12/03Z
Temp42 50 56 58 59 59 58 56 55 54 53 52 52
Dewpt34 36 37 37 34 34 35 35 36 36 35 36 38
Altim30.31 30.30 30.29 30.25 30.21 30.18 30.16 30.14 30.13 30.12 30.11 30.11 30.11
VIS10 10 10 10 10 10 10 10 10 10 10 10 10
CIG250 -- -- 250 250 230 220 190 180 200 300 300 300
CoverBKNSCTSCTBKNBKNBKNOVCOVCOVCOVCOVCOVCOVC
FltCatVFRVFRVFRVFRVFRVFRVFRVFRVFRVFRVFRVFRVFR
WX--------------------------
WDir190210210180180170180180170180180180180
WSpd6 10 11 13 15 14 17 19 12 14 14 12 13
WGst-- -- -- -- -- 20 24 24 -- -- -- -- --
Raw hourly METARs
KDFW 111453Z 19006KT 10SM BKN250 06/01 A3031 RMK AO2 SLP265 T00560011 53001
KDFW 111553Z 21010KT 10SM SCT250 10/02 A3030 RMK AO2 SLP260 T01000022
KDFW 111653Z 21011KT 10SM SCT250 13/03 A3029 RMK AO2 SLP258 T01330028
KDFW 111753Z 18013KT 10SM BKN250 14/03 A3025 RMK AO2 SLP243 T01440028 10150 20006 58021
KDFW 111853Z 18015KT 10SM FEW200 BKN250 15/01 A3021 RMK AO2 SLP228 T01500011
KDFW 111953Z 17014G20KT 10SM FEW180 BKN230 15/01 A3018 RMK AO2 SLP217 T01500011
KDFW 112053Z 18017G24KT 10SM FEW180 OVC220 14/02 A3016 RMK AO2 SLP211 T01440017 56031
KDFW 112153Z 18019G24KT 10SM BKN190 OVC250 13/02 A3014 RMK AO2 SLP205 T01330017
KDFW 112253Z 17012KT 10SM BKN180 OVC250 13/02 A3013 RMK AO2 PK WND 18026/2158 SLP202 T01280022
KDFW 112353Z 18014KT 10SM BKN200 OVC250 12/02 A3012 RMK AO2 SLP199 T01220022 10156 20122 56013
KDFW 120053Z 18014KT 10SM SCT200 OVC300 12/02 A3011 RMK AO2 SLP197 T01170017
KDFW 120153Z 18012KT 10SM SCT250 OVC300 11/02 A3011 RMK AO2 SLP197 T01110022
KDFW 120253Z 18013KT 10SM SCT250 OVC300 11/03 A3011 RMK AO2 SLP194 T01110033 57004



Page loaded:  03:14 UTC  |   07:14 PM Pacific  |   08:14 PM Mountain  |   09:14 PM Central  |   10:14 PM Eastern

 

ADVISORIES

FORECASTS

FORECASTS

OBSERVATIONS

USER TOOLS

ABOUT US